Time;durP1;ratioP1;P1;durP2;ratioP2;P2;SDS_P1;SDS_P2;PMS_P1;PMS_P2;Temp;Humidity;BMP_temperature;BMP_pressure;BME280_temperature;BME280_humidity;BME280_pressure;Samples;Min_cycle;Max_cycle;Signal;HPM_P1;HPM_P2
2021/05/21 00:00:26;;;;;;;2.50;1.87;;;16.40;51.50;;;;;;4992547;28;20207;-46
2021/05/21 00:02:52;;;;;;;1.50;1.40;;;16.40;51.40;;;;;;4991503;28;20699;-48
2021/05/21 00:05:17;;;;;;;3.67;1.57;;;16.40;51.30;;;;;;4991842;28;20209;-47
2021/05/21 00:07:43;;;;;;;1.93;1.80;;;16.60;51.20;;;;;;4991647;28;20202;-46
2021/05/21 00:10:09;;;;;;;1.90;1.70;;;16.80;50.80;;;;;;4992170;28;20198;-46
2021/05/21 00:12:34;;;;;;;1.60;1.50;;;16.80;50.40;;;;;;4991491;28;20659;-45
2021/05/21 00:15:00;;;;;;;2.93;1.50;;;16.90;50.40;;;;;;4991660;28;20191;-50
2021/05/21 00:17:26;;;;;;;2.03;1.60;;;16.90;50.30;;;;;;4991142;28;20210;-47
2021/05/21 00:19:52;;;;;;;1.60;1.50;;;17.00;50.10;;;;;;4991176;28;20627;-50
2021/05/21 00:22:17;;;;;;;1.70;1.60;;;17.10;50.10;;;;;;4991787;28;20276;-50
2021/05/21 00:24:43;;;;;;;1.63;1.53;;;17.20;49.80;;;;;;4997788;28;20296;-50
2021/05/21 00:27:08;;;;;;;2.03;1.50;;;17.30;49.50;;;;;;5011772;28;20542;-49
2021/05/21 00:29:34;;;;;;;1.93;1.67;;;17.40;49.50;;;;;;5011042;28;20667;-51
2021/05/21 00:32:00;;;;;;;1.73;1.63;;;17.30;49.30;;;;;;5011363;28;20206;-48
2021/05/21 00:34:26;;;;;;;2.07;1.60;;;17.30;49.40;;;;;;5010989;28;20198;-50
2021/05/21 00:36:52;;;;;;;1.40;1.30;;;17.40;49.30;;;;;;5011929;28;20448;-50
2021/05/21 00:39:19;;;;;;;1.63;1.53;;;17.40;49.30;;;;;;5004304;28;20465;-50
2021/05/21 00:41:45;;;;;;;3.20;1.60;;;17.40;49.50;;;;;;5011038;28;20488;-47
2021/05/21 00:44:14;;;;;;;3.73;1.40;;;17.00;49.90;;;;;;5010913;28;20420;-50
2021/05/21 00:46:40;;;;;;;1.40;1.30;;;16.90;50.10;;;;;;5015085;28;20429;-51
2021/05/21 00:49:06;;;;;;;2.37;1.60;;;16.90;50.00;;;;;;5014674;28;20817;-51
2021/05/21 00:51:32;;;;;;;1.53;1.43;;;17.00;50.00;;;;;;5014882;28;20503;-46
2021/05/21 00:53:59;;;;;;;1.50;1.40;;;17.00;49.70;;;;;;5014210;28;20431;-51
2021/05/21 00:56:25;;;;;;;1.70;1.60;;;17.10;49.60;;;;;;5015199;28;20421;-50
2021/05/21 00:58:51;;;;;;;1.40;1.30;;;17.00;49.20;;;;;;5014193;28;21011;-50
2021/05/21 01:01:17;;;;;;;1.60;1.50;;;17.00;49.30;;;;;;5014966;28;20582;-51
2021/05/21 01:03:43;;;;;;;1.47;1.37;;;17.00;49.20;;;;;;5014245;28;20643;-51
2021/05/21 01:06:10;;;;;;;1.60;1.50;;;17.00;49.20;;;;;;5014722;28;20202;-46
2021/05/21 01:08:36;;;;;;;2.23;1.20;;;16.60;49.50;;;;;;5014200;28;20716;-50
2021/05/21 01:11:04;;;;;;;1.50;1.40;;;16.40;50.30;;;;;;5013165;28;20416;-47
2021/05/21 01:13:30;;;;;;;2.30;1.33;;;16.60;50.10;;;;;;5014230;28;20456;-50
2021/05/21 01:15:55;;;;;;;1.57;1.47;;;16.60;49.80;;;;;;5014663;28;20457;-47
2021/05/21 01:18:21;;;;;;;1.87;1.47;;;16.60;50.10;;;;;;5014181;28;20240;-47
2021/05/21 01:20:46;;;;;;;1.50;1.40;;;16.50;50.30;;;;;;5014566;28;20226;-46
2021/05/21 01:23:12;;;;;;;1.90;1.80;;;16.60;50.40;;;;;;5014021;28;20670;-46
2021/05/21 01:25:38;;;;;;;2.30;1.83;;;16.60;50.20;;;;;;5014008;28;20186;-47
2021/05/21 01:28:05;;;;;;;1.60;1.50;;;16.40;50.40;;;;;;5013716;28;20646;-47
2021/05/21 01:30:31;;;;;;;1.90;1.57;;;16.50;50.10;;;;;;5014384;28;20693;-46
2021/05/21 01:33:05;;;;;;;2.60;1.67;;;16.70;50.20;;;;;;5014187;28;20440;-46
2021/05/21 01:35:30;;;;;;;1.67;1.57;;;16.80;50.00;;;;;;5013897;28;20467;-46
2021/05/21 01:37:56;;;;;;;5.20;1.67;;;16.50;49.70;;;;;;5011916;28;20492;-47
2021/05/21 01:40:23;;;;;;;1.40;1.30;;;16.40;50.10;;;;;;5012013;28;20296;-46
2021/05/21 01:42:49;;;;;;;5.73;1.43;;;16.50;50.20;;;;;;4994317;28;20199;-45
2021/05/21 01:45:14;;;;;;;3.37;1.70;;;16.40;49.90;;;;;;4993983;28;20841;-47
2021/05/21 01:47:40;;;;;;;1.50;1.40;;;16.50;49.80;;;;;;4994036;28;20198;-45
2021/05/21 01:50:07;;;;;;;4.50;1.63;;;16.50;50.10;;;;;;4994606;28;20257;-46
2021/05/21 01:52:33;;;;;;;2.30;1.40;;;16.70;49.80;;;;;;4993894;28;20208;-47
2021/05/21 01:55:00;;;;;;;1.40;1.30;;;16.70;49.80;;;;;;4992738;28;20437;-47
2021/05/21 01:57:25;;;;;;;2.20;1.53;;;16.80;49.70;;;;;;4993915;28;20202;-46
2021/05/21 01:59:51;;;;;;;1.67;1.57;;;16.90;49.50;;;;;;4994277;28;20456;-45
2021/05/21 02:02:16;;;;;;;1.90;1.60;;;17.00;49.40;;;;;;4994142;28;20226;-45
2021/05/21 02:04:42;;;;;;;1.73;1.63;;;16.80;49.20;;;;;;4991665;28;20190;-46
2021/05/21 02:07:12;;;;;;;1.30;1.20;;;16.70;49.30;;;;;;4994339;28;20201;-48
2021/05/21 02:09:58;;;;;;;1.60;1.50;;;16.60;49.40;;;;;;4993700;28;20643;-45
2021/05/21 02:12:28;;;;;;;2.43;1.40;;;16.90;49.20;;;;;;4993630;28;20444;-47
2021/05/21 02:14:55;;;;;;;1.53;1.43;;;17.10;48.80;;;;;;4993486;28;20433;-46
2021/05/21 02:17:20;;;;;;;1.23;1.20;;;17.20;48.30;;;;;;4993887;28;20473;-47
2021/05/21 02:19:46;;;;;;;1.40;1.30;;;17.40;48.00;;;;;;4993699;28;20458;-46
2021/05/21 02:22:13;;;;;;;1.73;1.63;;;17.40;48.30;;;;;;4993940;28;20222;-47
2021/05/21 02:24:39;;;;;;;1.40;1.30;;;17.20;48.20;;;;;;4992862;28;20686;-48
2021/05/21 02:27:05;;;;;;;1.63;1.37;;;17.00;48.00;;;;;;5008539;28;20480;-45
2021/05/21 02:29:31;;;;;;;2.00;1.70;;;17.00;48.70;;;;;;5012951;28;20439;-47
2021/05/21 02:31:57;;;;;;;1.43;1.33;;;16.90;48.70;;;;;;5011989;28;20425;-47
2021/05/21 02:34:22;;;;;;;2.70;1.63;;;17.00;48.40;;;;;;5012277;28;20555;-47
2021/05/21 02:36:48;;;;;;;2.60;1.30;;;17.20;48.10;;;;;;5013004;28;20198;-46
2021/05/21 02:39:14;;;;;;;3.30;1.67;;;17.00;48.10;;;;;;5012724;28;20252;-48
2021/05/21 02:41:39;;;;;;;1.40;1.30;;;17.10;48.20;;;;;;5000550;28;20616;-47
2021/05/21 02:44:05;;;;;;;1.27;1.17;;;17.20;47.90;;;;;;4992893;28;20226;-46
2021/05/21 02:46:31;;;;;;;1.43;1.10;;;17.10;48.00;;;;;;4993244;28;20599;-46
2021/05/21 02:48:57;;;;;;;1.10;1.00;;;17.10;47.80;;;;;;4992804;28;20273;-45
2021/05/21 02:51:22;;;;;;;3.13;1.30;;;17.30;47.70;;;;;;4993266;28;20191;-46
2021/05/21 02:53:48;;;;;;;1.40;1.30;;;17.40;47.40;;;;;;4991956;28;20218;-46
2021/05/21 02:56:13;;;;;;;1.47;1.10;;;17.40;47.20;;;;;;4992440;28;20239;-45
2021/05/21 02:58:39;;;;;;;3.93;1.03;;;17.50;47.20;;;;;;4991728;28;20199;-45
2021/05/21 03:01:05;;;;;;;2.23;1.57;;;17.50;47.20;;;;;;4992893;28;20232;-45
2021/05/21 03:03:30;;;;;;;1.97;1.10;;;17.50;47.30;;;;;;4992201;28;20234;-46
2021/05/21 03:05:56;;;;;;;1.73;1.40;;;17.50;47.20;;;;;;4992772;28;20218;-46
2021/05/21 03:08:22;;;;;;;2.20;1.53;;;17.50;47.00;;;;;;4992507;28;20289;-47
2021/05/21 03:10:48;;;;;;;4.10;3.03;;;17.50;46.80;;;;;;4992614;28;20198;-46
2021/05/21 03:13:13;;;;;;;4.30;2.63;;;17.60;46.90;;;;;;4992327;28;20941;-46
2021/05/21 03:15:42;;;;;;;2.80;1.87;;;17.50;47.00;;;;;;4992562;28;20269;-47
2021/05/21 03:18:18;;;;;;;4.40;2.47;;;17.50;47.00;;;;;;4992116;28;20202;-46
2021/05/21 03:20:44;;;;;;;2.50;2.10;;;17.50;47.10;;;;;;4992473;28;20902;-47
2021/05/21 03:23:10;;;;;;;2.23;1.60;;;17.50;47.20;;;;;;4990535;28;20425;-47
2021/05/21 03:25:37;;;;;;;2.47;1.63;;;17.40;47.30;;;;;;4995405;28;20472;-46
2021/05/21 03:28:04;;;;;;;2.20;1.30;;;17.40;47.80;;;;;;5011608;28;20436;-46
2021/05/21 03:30:29;;;;;;;1.33;1.20;;;17.40;47.50;;;;;;5012045;28;20448;-46
2021/05/21 03:32:55;;;;;;;1.20;1.10;;;17.40;47.80;;;;;;5011751;28;20471;-45
2021/05/21 03:35:20;;;;;;;1.20;1.10;;;17.40;48.20;;;;;;5011755;28;20196;-45
2021/05/21 03:37:46;;;;;;;1.30;1.20;;;17.40;48.10;;;;;;5010205;28;20341;-46
2021/05/21 03:40:12;;;;;;;2.00;1.20;;;17.40;48.20;;;;;;5006368;28;20762;-49
2021/05/21 03:42:37;;;;;;;1.13;1.03;;;17.40;47.90;;;;;;5011702;28;20186;-46
2021/05/21 03:45:05;;;;;;;2.10;1.20;;;17.40;47.80;;;;;;5011814;28;20186;-45
2021/05/21 03:47:32;;;;;;;5.60;2.63;;;17.40;48.20;;;;;;5011423;28;20201;-46
2021/05/21 03:49:58;;;;;;;17.07;6.13;;;17.30;48.40;;;;;;5010581;28;20437;-46
2021/05/21 03:52:25;;;;;;;7.90;3.37;;;17.30;47.40;;;;;;5011514;28;20966;-47
2021/05/21 03:54:51;;;;;;;3.90;1.93;;;17.40;47.10;;;;;;5011671;28;20605;-48
2021/05/21 03:57:17;;;;;;;2.50;1.70;;;17.40;47.10;;;;;;5011720;28;20457;-48
2021/05/21 03:59:42;;;;;;;2.80;1.77;;;17.40;47.20;;;;;;5011379;28;20204;-46
2021/05/21 04:02:10;;;;;;;6.80;5.00;;;17.40;47.10;;;;;;5011949;28;20225;-45
2021/05/21 04:04:36;;;;;;;1.70;1.60;;;17.40;47.00;;;;;;5011371;28;20196;-46
2021/05/21 04:07:01;;;;;;;1.80;1.40;;;17.30;46.80;;;;;;5011578;28;20418;-46
2021/05/21 04:09:30;;;;;;;1.60;1.33;;;17.40;46.90;;;;;;5011296;28;20243;-45
2021/05/21 04:11:55;;;;;;;3.63;1.43;;;17.20;46.70;;;;;;5003964;28;20207;-46
2021/05/21 04:14:21;;;;;;;2.67;0.90;;;17.20;47.10;;;;;;4991276;28;20422;-47
2021/05/21 04:16:46;;;;;;;1.70;1.30;;;17.10;47.10;;;;;;4990413;28;20222;-45
2021/05/21 04:19:12;;;;;;;1.07;0.97;;;17.10;47.10;;;;;;4993597;28;20639;-46
2021/05/21 04:21:38;;;;;;;1.13;1.03;;;17.20;47.10;;;;;;4995958;28;20240;-45
2021/05/21 04:24:05;;;;;;;2.53;1.10;;;17.10;46.90;;;;;;4995036;28;20781;-45
2021/05/21 04:26:30;;;;;;;9.70;1.50;;;16.90;47.10;;;;;;5006109;28;20476;-45
2021/05/21 04:28:56;;;;;;;1.87;1.60;;;16.90;48.00;;;;;;5015038;28;20452;-46
2021/05/21 04:31:22;;;;;;;1.83;1.50;;;16.90;49.10;;;;;;5015602;28;20212;-45
2021/05/21 04:33:47;;;;;;;1.90;1.50;;;16.90;49.30;;;;;;5014512;28;20240;-47
2021/05/21 04:36:13;;;;;;;3.30;1.47;;;16.90;49.20;;;;;;5015544;28;20643;-46
2021/05/21 04:38:38;;;;;;;2.80;1.70;;;16.90;49.50;;;;;;5014443;28;20255;-46
2021/05/21 04:41:04;;;;;;;5.50;2.03;;;17.00;49.90;;;;;;5007464;28;20368;-45
2021/05/21 04:43:31;;;;;;;2.23;2.13;;;17.00;49.90;;;;;;4993342;28;20287;-45
2021/05/21 04:45:57;;;;;;;1.57;1.47;;;16.80;49.60;;;;;;4995739;28;20869;-48
2021/05/21 04:48:23;;;;;;;3.90;1.80;;;16.70;50.00;;;;;;4994964;28;20560;-47
2021/05/21 04:50:50;;;;;;;1.63;1.50;;;16.70;50.20;;;;;;4995707;28;20914;-46
2021/05/21 04:53:16;;;;;;;2.40;1.70;;;16.60;49.90;;;;;;4995100;28;20430;-46
2021/05/21 04:55:42;;;;;;;3.83;1.93;;;16.40;50.50;;;;;;5003529;28;20425;-46
2021/05/21 04:58:09;;;;;;;2.07;1.80;;;16.40;50.50;;;;;;5012800;28;20425;-45
2021/05/21 05:00:36;;;;;;;2.73;1.50;;;16.40;50.60;;;;;;4995460;28;20533;-46
2021/05/21 05:03:06;;;;;;;1.70;1.60;;;16.40;51.00;;;;;;4994827;28;20830;-46
2021/05/21 05:05:32;;;;;;;1.83;1.50;;;16.40;51.20;;;;;;4995041;28;20426;-47
2021/05/21 05:07:57;;;;;;;1.87;1.67;;;16.50;50.60;;;;;;4994988;28;20486;-46
2021/05/21 05:10:23;;;;;;;1.50;1.40;;;16.50;50.60;;;;;;4993603;28;20563;-47
2021/05/21 05:12:49;;;;;;;1.20;1.10;;;16.50;50.10;;;;;;4994690;28;20716;-49
2021/05/21 05:15:14;;;;;;;1.70;1.60;;;16.40;50.00;;;;;;4994932;28;20194;-45
2021/05/21 05:17:40;;;;;;;3.03;1.73;;;16.60;50.70;;;;;;4994492;28;20194;-46
2021/05/21 05:20:06;;;;;;;2.40;2.20;;;16.60;51.10;;;;;;4994815;28;20190;-46
2021/05/21 05:22:32;;;;;;;2.00;1.80;;;16.80;51.70;;;;;;4994633;28;20230;-46
2021/05/21 05:24:58;;;;;;;2.23;2.10;;;16.80;51.90;;;;;;4994854;28;20426;-46
2021/05/21 05:27:24;;;;;;;2.60;1.90;;;16.50;52.70;;;;;;5012234;28;20204;-47
2021/05/21 05:29:49;;;;;;;1.90;1.73;;;16.20;53.10;;;;;;5014218;28;20503;-46
2021/05/21 05:32:16;;;;;;;3.83;1.90;;;16.20;53.30;;;;;;5014591;28;20276;-45
2021/05/21 05:34:41;;;;;;;3.17;1.80;;;16.20;53.80;;;;;;5013497;28;20754;-51
2021/05/21 05:37:07;;;;;;;2.17;1.97;;;16.20;54.00;;;;;;5012789;28;20529;-47
2021/05/21 05:39:32;;;;;;;1.97;1.57;;;16.30;53.10;;;;;;5013636;28;20316;-46
2021/05/21 05:41:58;;;;;;;2.10;1.90;;;16.40;52.80;;;;;;4998806;28;20222;-46
2021/05/21 05:44:24;;;;;;;3.40;2.40;;;16.50;52.40;;;;;;4993706;28;20202;-46
2021/05/21 05:46:49;;;;;;;2.10;2.00;;;16.70;52.40;;;;;;4994740;28;20674;-46
2021/05/21 05:49:15;;;;;;;9.50;2.80;;;16.80;52.40;;;;;;4994152;28;20213;-46
2021/05/21 05:51:40;;;;;;;16.57;4.50;;;17.00;51.90;;;;;;4994209;28;20305;-46
2021/05/21 05:54:06;;;;;;;6.10;2.27;;;17.20;51.20;;;;;;4993747;28;20190;-46
2021/05/21 05:56:32;;;;;;;3.83;1.67;;;17.20;49.70;;;;;;4993128;28;20198;-45
2021/05/21 05:58:57;;;;;;;3.47;1.40;;;17.20;49.80;;;;;;4993893;28;20191;-51
2021/05/21 06:01:23;;;;;;;2.40;1.13;;;17.30;49.10;;;;;;4993058;28;20226;-50
2021/05/21 06:03:48;;;;;;;2.47;1.57;;;17.50;48.90;;;;;;4992602;28;20317;-49
2021/05/21 06:06:14;;;;;;;1.33;1.20;;;17.60;48.50;;;;;;4994158;28;20195;-46
2021/05/21 06:08:40;;;;;;;5.03;4.53;;;17.70;48.10;;;;;;4994209;28;20198;-46
2021/05/21 06:11:05;;;;;;;3.33;2.53;;;17.70;48.70;;;;;;4994078;28;20191;-46
2021/05/21 06:13:31;;;;;;;4.37;3.07;;;17.70;49.60;;;;;;4993243;28;20198;-49
2021/05/21 06:15:56;;;;;;;3.00;2.00;;;17.80;49.90;;;;;;4994018;28;20206;-46
2021/05/21 06:18:22;;;;;;;1.80;1.70;;;18.00;48.90;;;;;;4993387;28;20194;-47
2021/05/21 06:20:48;;;;;;;2.53;2.03;;;18.00;48.60;;;;;;4993811;28;20632;-46
2021/05/21 06:23:15;;;;;;;8.53;1.90;;;18.00;48.70;;;;;;4993052;28;20213;-46
2021/05/21 06:28:11;;;;;;;1.90;1.70;;;18.20;48.80;;;;;;5011068;28;20425;-47
2021/05/21 06:30:37;;;;;;;5.80;1.87;;;18.40;48.40;;;;;;5013062;28;20529;-47
2021/05/21 06:33:03;;;;;;;2.70;1.73;;;18.50;48.00;;;;;;5012835;28;20500;-45
2021/05/21 06:35:29;;;;;;;3.23;1.90;;;18.50;48.20;;;;;;5013476;28;20425;-46
2021/05/21 06:37:55;;;;;;;7.40;2.00;;;18.60;48.30;;;;;;5012159;28;20245;-47
2021/05/21 06:40:21;;;;;;;1.90;1.67;;;18.70;48.40;;;;;;5010882;28;20421;-47
2021/05/21 06:42:46;;;;;;;5.57;1.90;;;18.70;48.10;;;;;;4992439;28;20198;-47
2021/05/21 06:45:12;;;;;;;1.97;1.57;;;18.70;47.90;;;;;;4992851;28;20434;-46
2021/05/21 06:47:38;;;;;;;2.67;1.60;;;18.80;47.60;;;;;;4992757;28;20198;-45
2021/05/21 06:50:04;;;;;;;2.93;1.60;;;18.80;47.30;;;;;;4993212;28;20433;-46
2021/05/21 06:52:30;;;;;;;3.10;1.73;;;18.70;47.60;;;;;;4992778;28;20205;-46
2021/05/21 06:54:55;;;;;;;3.43;1.87;;;18.60;48.70;;;;;;4991164;28;20874;-46
2021/05/21 06:57:22;;;;;;;1.60;1.50;;;18.70;49.00;;;;;;4993194;28;20205;-46
2021/05/21 06:59:48;;;;;;;3.03;1.90;;;18.70;48.40;;;;;;4992900;28;20248;-46
2021/05/21 07:02:13;;;;;;;1.50;1.13;;;18.60;48.40;;;;;;4993278;28;20493;-46
2021/05/21 07:04:39;;;;;;;1.13;1.00;;;18.60;46.90;;;;;;4992066;28;20230;-45
2021/05/21 07:07:04;;;;;;;3.07;1.40;;;18.70;46.10;;;;;;4992894;28;20194;-46
2021/05/21 07:09:30;;;;;;;3.83;1.20;;;18.70;45.80;;;;;;4992582;28;20692;-46
2021/05/21 07:11:56;;;;;;;5.20;1.30;;;18.80;45.50;;;;;;4991973;28;20298;-46
2021/05/21 07:14:21;;;;;;;1.83;1.20;;;18.70;45.30;;;;;;4991982;28;20225;-47
2021/05/21 07:16:47;;;;;;;2.63;1.03;;;18.70;45.20;;;;;;4992990;28;20580;-46
2021/05/21 07:19:18;;;;;;;1.23;1.13;;;18.80;45.40;;;;;;4992237;28;20197;-46
2021/05/21 07:21:45;;;;;;;2.10;1.30;;;18.80;44.90;;;;;;4991169;28;20276;-45
2021/05/21 07:24:10;;;;;;;2.10;1.20;;;18.80;44.90;;;;;;4991802;28;20518;-47
2021/05/21 07:26:36;;;;;;;2.20;0.97;;;19.00;44.90;;;;;;5003824;28;20536;-46
2021/05/21 07:29:03;;;;;;;1.90;1.20;;;19.10;44.70;;;;;;5011752;28;20620;-46
2021/05/21 07:31:30;;;;;;;2.90;1.20;;;19.00;44.10;;;;;;5012210;28;20277;-48
2021/05/21 07:33:58;;;;;;;2.17;1.20;;;19.00;43.70;;;;;;5011557;28;20482;-46
2021/05/21 07:36:25;;;;;;;2.93;1.60;;;19.00;43.80;;;;;;5012084;28;20436;-46
2021/05/21 07:38:52;;;;;;;1.17;1.00;;;19.00;44.30;;;;;;5011354;28;20559;-49
2021/05/21 07:41:22;;;;;;;4.00;1.20;;;18.90;44.10;;;;;;5002306;28;20477;-46
2021/05/21 07:43:49;;;;;;;3.17;1.30;;;18.90;44.00;;;;;;4991415;28;20456;-46
2021/05/21 07:46:15;;;;;;;1.70;1.07;;;19.00;44.10;;;;;;4992381;28;20929;-46
2021/05/21 07:48:41;;;;;;;2.70;1.23;;;19.00;44.30;;;;;;4990275;28;20437;-46
2021/05/21 07:51:07;;;;;;;5.73;1.20;;;18.90;44.40;;;;;;4992408;28;20430;-50
2021/05/21 07:53:33;;;;;;;1.50;1.00;;;19.00;43.90;;;;;;4991205;28;20436;-47
2021/05/21 07:56:00;;;;;;;2.40;1.83;;;19.00;43.80;;;;;;4992632;28;20652;-47
2021/05/21 07:58:26;;;;;;;3.23;1.80;;;19.10;43.80;;;;;;4991846;28;20960;-47
2021/05/21 08:00:53;;;;;;;1.17;0.93;;;19.10;43.80;;;;;;4992189;28;20465;-46
2021/05/21 08:03:19;;;;;;;1.53;0.93;;;19.20;43.70;;;;;;4991337;28;20440;-46
2021/05/21 08:05:45;;;;;;;1.30;0.90;;;19.30;43.50;;;;;;4992382;28;20440;-46
2021/05/21 08:08:11;;;;;;;1.17;0.90;;;19.30;43.10;;;;;;4991841;28;20499;-47
2021/05/21 08:10:37;;;;;;;1.57;1.10;;;19.40;43.40;;;;;;4991897;28;20434;-46
2021/05/21 08:13:03;;;;;;;2.13;1.37;;;19.50;43.30;;;;;;4991012;28;20230;-46
2021/05/21 08:15:29;;;;;;;2.77;1.00;;;19.50;43.00;;;;;;4990714;28;20195;-47
2021/05/21 08:17:55;;;;;;;2.30;1.30;;;19.60;43.00;;;;;;4991728;28;20521;-46
2021/05/21 08:20:20;;;;;;;2.30;1.10;;;19.60;42.90;;;;;;4992014;28;20191;-48
2021/05/21 08:22:47;;;;;;;5.07;1.27;;;19.70;43.10;;;;;;4991217;28;20211;-47
2021/05/21 08:25:14;;;;;;;2.00;1.40;;;19.70;42.80;;;;;;4991634;28;20199;-45
2021/05/21 08:27:40;;;;;;;2.67;1.40;;;19.70;42.60;;;;;;4991283;28;20424;-46
2021/05/21 08:30:06;;;;;;;1.80;1.30;;;19.60;43.00;;;;;;4991719;28;20938;-45
2021/05/21 08:32:32;;;;;;;2.80;1.10;;;19.60;43.00;;;;;;4991400;28;20509;-47
2021/05/21 08:34:58;;;;;;;1.33;1.10;;;19.80;43.20;;;;;;4991955;28;20557;-46
2021/05/21 08:37:24;;;;;;;2.37;1.60;;;19.80;42.90;;;;;;4991490;28;20199;-50
2021/05/21 08:39:49;;;;;;;1.30;1.13;;;19.70;42.80;;;;;;5004276;28;20417;-46
2021/05/21 08:42:16;;;;;;;2.83;1.13;;;19.70;42.80;;;;;;5009527;28;20226;-46
2021/05/21 08:44:46;;;;;;;2.30;1.17;;;19.70;42.80;;;;;;5010471;28;20218;-47
2021/05/21 08:47:13;;;;;;;2.00;1.20;;;19.70;43.10;;;;;;5011639;28;20441;-46
2021/05/21 08:49:39;;;;;;;4.40;1.20;;;19.70;42.90;;;;;;5010768;28;20429;-46
2021/05/21 08:52:05;;;;;;;2.10;1.03;;;19.60;42.70;;;;;;5011544;28;20428;-46
2021/05/21 08:54:34;;;;;;;2.07;1.10;;;19.80;42.80;;;;;;5010377;28;20440;-46
2021/05/21 08:57:05;;;;;;;4.73;1.40;;;20.00;42.80;;;;;;5011082;28;20437;-47
2021/05/21 08:59:30;;;;;;;3.77;1.20;;;20.10;42.30;;;;;;5010826;28;20429;-46
2021/05/21 09:01:57;;;;;;;1.03;0.93;;;20.30;42.00;;;;;;5011303;28;20986;-51
2021/05/21 09:04:24;;;;;;;1.70;1.00;;;20.10;41.50;;;;;;5011672;28;20197;-46
2021/05/21 09:06:49;;;;;;;1.47;1.00;;;20.20;41.70;;;;;;5012947;28;20433;-50
2021/05/21 09:09:15;;;;;;;1.93;1.10;;;20.10;41.40;;;;;;5014298;28;20799;-47
2021/05/21 09:11:43;;;;;;;5.43;1.20;;;20.00;42.00;;;;;;5014750;28;20196;-46
2021/05/21 09:14:23;;;;;;;3.43;1.30;;;20.10;42.00;;;;;;5014123;28;20202;-47
2021/05/21 09:16:49;;;;;;;1.93;1.30;;;20.20;42.20;;;;;;5014701;28;20503;-46
2021/05/21 09:19:16;;;;;;;1.20;1.10;;;20.10;42.20;;;;;;5014055;28;20813;-51
2021/05/21 09:21:52;;;;;;;1.77;1.33;;;19.80;42.90;;;;;;5014743;28;20575;-46
2021/05/21 09:24:27;;;;;;;2.23;1.23;;;19.90;43.30;;;;;;5013421;28;20494;-50
2021/05/21 09:26:53;;;;;;;1.47;1.07;;;19.80;43.50;;;;;;5014630;28;20510;-47
2021/05/21 09:29:40;;;;;;;1.60;1.13;;;20.00;43.40;;;;;;5014084;28;20440;-50
2021/05/21 09:32:24;;;;;;;1.63;1.20;;;20.00;43.30;;;;;;5014436;28;20451;-52
2021/05/21 09:35:12;;;;;;;5.00;1.30;;;19.80;43.10;;;;;;5012196;28;20468;-46
2021/05/21 09:37:47;;;;;;;2.07;1.10;;;19.50;42.70;;;;;;5013327;28;20912;-46
2021/05/21 09:40:20;;;;;;;1.13;0.87;;;18.90;42.70;;;;;;5008776;28;20432;-47
2021/05/21 09:42:57;;;;;;;1.00;0.80;;;19.00;43.70;;;;;;5013804;28;20463;-50
2021/05/21 09:45:24;;;;;;;1.63;1.00;;;19.20;43.40;;;;;;5014294;28;20445;-46
2021/05/21 09:48:10;;;;;;;1.23;0.80;;;19.20;43.30;;;;;;5013641;28;20788;-49
2021/05/21 09:50:38;;;;;;;3.07;1.10;;;19.00;42.90;;;;;;5014202;28;20445;-46
2021/05/21 09:53:09;;;;;;;2.23;1.00;;;19.10;43.60;;;;;;5012837;28;20473;-46
2021/05/21 09:55:56;;;;;;;3.53;1.10;;;19.20;43.80;;;;;;5014110;28;20436;-50
2021/05/21 09:58:36;;;;;;;7.80;1.03;;;19.20;44.30;;;;;;5013465;28;20516;-49
2021/05/21 10:01:20;;;;;;;4.43;1.10;;;19.10;44.60;;;;;;5012149;28;20500;-48
2021/05/21 10:04:08;;;;;;;0.80;0.80;;;19.10;45.00;;;;;;5013039;28;20437;-46
2021/05/21 10:06:34;;;;;;;1.50;0.70;;;19.00;45.00;;;;;;5013662;28;20587;-47
2021/05/21 10:09:00;;;;;;;1.00;0.80;;;18.90;45.00;;;;;;5013408;28;20456;-46
2021/05/21 10:11:32;;;;;;;0.73;0.73;;;19.00;45.20;;;;;;5013623;28;20521;-47
2021/05/21 10:13:57;;;;;;;1.47;1.10;;;18.90;44.90;;;;;;5012972;28;20536;-46
2021/05/21 10:16:23;;;;;;;4.40;1.17;;;18.90;45.20;;;;;;5012440;28;20544;-45
2021/05/21 10:18:50;;;;;;;3.90;1.20;;;18.90;45.30;;;;;;5013000;28;20954;-46
2021/05/21 10:21:17;;;;;;;1.43;1.33;;;18.90;45.20;;;;;;5013413;28;20226;-47
2021/05/21 10:23:47;;;;;;;1.20;0.93;;;18.80;44.60;;;;;;5012298;28;20456;-46
2021/05/21 10:26:16;;;;;;;1.80;0.90;;;18.80;44.20;;;;;;5011557;28;20507;-47
2021/05/21 10:28:46;;;;;;;1.67;0.90;;;18.60;44.20;;;;;;5012871;28;20441;-46
2021/05/21 10:31:14;;;;;;;1.83;0.80;;;18.80;44.80;;;;;;5013036;28;20515;-46
2021/05/21 10:33:43;;;;;;;2.30;1.00;;;19.00;44.60;;;;;;5012175;28;20451;-47
2021/05/21 10:36:23;;;;;;;2.40;0.60;;;19.00;44.40;;;;;;5013111;28;20991;-45
2021/05/21 10:39:09;;;;;;;0.83;0.83;;;18.40;44.40;;;;;;5012249;28;20514;-46
2021/05/21 10:41:48;;;;;;;1.47;1.00;;;18.50;44.70;;;;;;5001171;28;20488;-45
2021/05/21 10:44:21;;;;;;;2.07;1.30;;;18.80;44.90;;;;;;4999505;28;20421;-46
2021/05/21 10:46:49;;;;;;;0.90;0.90;;;18.90;44.90;;;;;;5012939;28;20880;-45
2021/05/21 10:49:25;;;;;;;1.40;1.27;;;18.90;45.00;;;;;;5012517;28;20509;-47
2021/05/21 10:51:56;;;;;;;1.63;0.93;;;19.00;45.20;;;;;;5013007;28;20448;-47
2021/05/21 10:54:44;;;;;;;1.40;1.30;;;19.10;45.20;;;;;;5010151;28;20844;-47
2021/05/21 10:57:12;;;;;;;2.43;1.37;;;19.10;45.00;;;;;;5012759;28;20841;-46
2021/05/21 10:59:50;;;;;;;1.30;1.20;;;19.30;45.30;;;;;;5012270;28;20443;-46
2021/05/21 11:02:16;;;;;;;0.80;0.80;;;19.30;44.70;;;;;;5012534;28;20477;-47
2021/05/21 11:04:42;;;;;;;1.30;1.20;;;19.50;44.40;;;;;;5011729;28;20436;-46
2021/05/21 11:07:08;;;;;;;3.87;1.30;;;19.60;44.90;;;;;;5012779;28;20637;-46
2021/05/21 11:09:45;;;;;;;1.50;1.10;;;19.70;44.90;;;;;;5011796;28;20284;-46
2021/05/21 11:12:15;;;;;;;2.50;1.50;;;19.80;44.70;;;;;;5012626;28;20440;-47
2021/05/21 11:14:45;;;;;;;1.00;0.90;;;19.70;44.90;;;;;;5011631;28;20775;-46
2021/05/21 11:17:15;;;;;;;0.90;0.90;;;19.90;45.00;;;;;;5012564;28;20767;-46
2021/05/21 11:19:56;;;;;;;1.30;1.10;;;20.00;45.10;;;;;;5010058;28;20425;-49
2021/05/21 11:22:30;;;;;;;0.90;0.80;;;20.10;44.80;;;;;;5012516;28;20818;-46
2021/05/21 11:25:00;;;;;;;0.80;0.80;;;20.40;44.70;;;;;;5012198;28;20461;-46
2021/05/21 11:27:28;;;;;;;4.37;1.00;;;20.30;44.30;;;;;;5011759;28;20664;-47
2021/05/21 11:29:54;;;;;;;3.50;0.90;;;20.20;44.10;;;;;;5012369;28;20512;-48
2021/05/21 11:32:23;;;;;;;1.43;0.70;;;19.70;44.30;;;;;;5012211;28;20935;-47
2021/05/21 11:34:49;;;;;;;1.20;0.80;;;19.30;44.40;;;;;;5011602;28;20428;-48
2021/05/21 11:37:23;;;;;;;1.00;0.90;;;19.50;44.70;;;;;;5012168;28;20516;-46
2021/05/21 11:39:52;;;;;;;1.20;1.10;;;19.50;45.00;;;;;;5011582;28;20447;-46
2021/05/21 11:42:22;;;;;;;2.30;0.90;;;19.70;44.70;;;;;;4994331;28;20488;-46
2021/05/21 11:44:53;;;;;;;1.13;1.03;;;19.60;44.90;;;;;;4991774;28;20430;-46
2021/05/21 11:47:29;;;;;;;1.97;1.10;;;19.70;45.30;;;;;;4990828;28;21020;-48
2021/05/21 11:49:56;;;;;;;0.83;0.80;;;19.60;45.10;;;;;;4992517;28;20533;-46
2021/05/21 11:52:23;;;;;;;2.20;1.10;;;19.70;44.70;;;;;;4992223;28;20434;-46
2021/05/21 11:54:49;;;;;;;1.33;0.70;;;19.50;44.60;;;;;;4991893;28;20433;-45
2021/05/21 11:57:20;;;;;;;1.07;0.70;;;19.10;44.30;;;;;;4992501;28;20420;-46
2021/05/21 11:59:47;;;;;;;1.20;0.70;;;19.20;44.70;;;;;;4991989;28;20437;-45
2021/05/21 12:02:16;;;;;;;1.60;1.20;;;19.20;44.70;;;;;;4992062;28;21000;-46
2021/05/21 12:04:44;;;;;;;0.80;0.80;;;19.40;44.20;;;;;;4991217;28;20925;-46
2021/05/21 12:07:21;;;;;;;1.33;0.90;;;19.50;44.50;;;;;;4992278;28;20521;-46
2021/05/21 12:10:04;;;;;;;2.63;0.97;;;19.70;44.50;;;;;;4991902;28;20511;-48
2021/05/21 12:12:32;;;;;;;0.70;0.70;;;19.80;43.50;;;;;;4990140;28;20442;-47
2021/05/21 12:15:12;;;;;;;1.10;1.00;;;19.60;42.80;;;;;;4998704;28;20436;-46
2021/05/21 12:17:46;;;;;;;1.90;0.90;;;19.40;43.10;;;;;;5011233;28;20498;-47
2021/05/21 12:20:13;;;;;;;1.20;0.90;;;19.30;43.40;;;;;;5011645;28;20516;-46
2021/05/21 12:22:38;;;;;;;1.63;1.13;;;19.40;43.80;;;;;;5010694;28;20500;-46
2021/05/21 12:25:18;;;;;;;1.37;0.97;;;19.30;43.50;;;;;;5011807;28;20436;-47
2021/05/21 12:27:44;;;;;;;1.27;0.90;;;19.30;43.20;;;;;;4991621;28;20332;-49
2021/05/21 12:30:11;;;;;;;1.70;1.00;;;19.20;42.40;;;;;;4991766;28;20437;-47
2021/05/21 12:32:37;;;;;;;1.33;0.97;;;19.30;42.20;;;;;;4990840;28;20437;-49
2021/05/21 12:35:07;;;;;;;0.87;0.80;;;19.30;41.50;;;;;;4992011;28;20421;-51
2021/05/21 12:37:33;;;;;;;1.33;1.00;;;19.40;41.60;;;;;;4991666;28;20801;-52
2021/05/21 12:40:00;;;;;;;1.40;1.23;;;19.20;41.70;;;;;;5005242;28;20433;-49
2021/05/21 12:42:26;;;;;;;1.17;1.10;;;19.20;41.70;;;;;;4995997;28;20234;-51
2021/05/21 12:44:53;;;;;;;0.80;0.80;;;19.30;41.30;;;;;;4995360;28;20976;-51
2021/05/21 12:47:20;;;;;;;1.30;1.07;;;19.20;41.20;;;;;;4995720;28;20996;-51
2021/05/21 12:49:48;;;;;;;0.90;0.90;;;18.90;41.00;;;;;;4994947;28;20519;-51
2021/05/21 12:52:14;;;;;;;0.90;0.90;;;19.00;41.70;;;;;;4995674;28;20430;-50